Time;durP1;ratioP1;P1;durP2;ratioP2;P2;SDS_P1;SDS_P2;PMS_P1;PMS_P2;Temp;Humidity;BMP_temperature;BMP_pressure;BME280_temperature;BME280_humidity;BME280_pressure;Samples;Min_cycle;Max_cycle;Signal;HPM_P1;HPM_P2
2022/08/16 00:00:13;;;;;;;0.10;0.10;;;;;;;;;;4916035;29;20156;-88
2022/08/16 00:02:39;;;;;;;0.10;0.10;;;;;;;;;;4900719;29;20132;-89
2022/08/16 00:05:06;;;;;;;0.10;0.10;;;;;;;;;;4903486;29;20047;-89
2022/08/16 00:07:32;;;;;;;0.20;0.20;;;;;;;;;;4902284;29;20488;-89
2022/08/16 00:09:58;;;;;;;0.10;0.10;;;;;;;;;;4900760;29;20046;-90
2022/08/16 00:12:24;;;;;;;0.10;0.10;;;;;;;;;;4901901;29;20043;-89
2022/08/16 00:14:50;;;;;;;0.10;0.10;;;;;;;;;;4902630;29;20044;-88
2022/08/16 00:17:16;;;;;;;0.10;0.10;;;;;;;;;;4901422;29;20063;-88
2022/08/16 00:19:42;;;;;;;0.15;0.15;;;;;;;;;;4885383;29;20040;-88
2022/08/16 00:22:08;;;;;;;0.10;0.10;;;;;;;;;;4916141;29;20051;-88
2022/08/16 00:24:34;;;;;;;0.10;0.10;;;;;;;;;;4900754;29;20040;-88
2022/08/16 00:27:01;;;;;;;0.20;0.20;;;;;;;;;;4898865;29;20384;-89
2022/08/16 00:29:27;;;;;;;0.10;0.10;;;;;;;;;;4914607;29;20105;-89
2022/08/16 00:31:53;;;;;;;0.10;0.10;;;;;;;;;;4898683;29;20381;-89
2022/08/16 00:34:19;;;;;;;0.20;0.20;;;;;;;;;;4888493;29;20084;-89
2022/08/16 00:36:45;;;;;;;0.15;0.15;;;;;;;;;;4920717;29;20101;-89
2022/08/16 00:39:14;;;;;;;0.10;0.10;;;;;;;;;;4890316;29;20051;-88
2022/08/16 00:41:41;;;;;;;0.10;0.10;;;;;;;;;;4905640;29;20051;-89
2022/08/16 00:44:09;;;;;;;0.10;0.10;;;;;;;;;;4908140;29;20044;-88
2022/08/16 00:46:39;;;;;;;0.10;0.10;;;;;;;;;;4919445;29;20070;-89
2022/08/16 00:49:06;;;;;;;0.10;0.10;;;;;;;;;;4902255;29;20454;-88
2022/08/16 00:51:32;;;;;;;0.10;0.10;;;;;;;;;;4917783;29;20048;-88
2022/08/16 00:53:58;;;;;;;0.20;0.20;;;;;;;;;;4917416;29;20044;-90
2022/08/16 00:56:25;;;;;;;0.10;0.10;;;;;;;;;;4917325;29;20051;-89
2022/08/16 00:58:51;;;;;;;0.10;0.10;;;;;;;;;;4901440;29;20139;-89
2022/08/16 01:01:17;;;;;;;0.10;0.10;;;;;;;;;;4916880;29;20184;-89
2022/08/16 01:03:44;;;;;;;0.10;0.10;;;;;;;;;;4917336;29;20057;-88
2022/08/16 01:06:10;;;;;;;0.10;0.10;;;;;;;;;;4901588;29;20488;-88
2022/08/16 01:08:37;;;;;;;0.10;0.10;;;;;;;;;;4901438;29;20039;-88
2022/08/16 01:11:03;;;;;;;0.10;0.10;;;;;;;;;;4901286;29;20054;-88
2022/08/16 01:13:30;;;;;;;0.10;0.10;;;;;;;;;;4917017;29;20455;-88
2022/08/16 01:16:00;;;;;;;0.20;0.20;;;;;;;;;;4916815;29;20056;-88
2022/08/16 01:18:29;;;;;;;0.10;0.10;;;;;;;;;;4916910;29;20090;-88
2022/08/16 01:21:31;;;;;;;0.20;0.20;;;;;;;;;;4901072;29;20131;-88
2022/08/16 01:24:05;;;;;;;0.10;0.10;;;;;;;;;;4900484;29;20146;-88
2022/08/16 01:26:31;;;;;;;0.10;0.10;;;;;;;;;;4888774;29;20478;-88
2022/08/16 01:29:00;;;;;;;0.15;0.15;;;;;;;;;;4900850;29;20044;-88
2022/08/16 01:31:27;;;;;;;0.10;0.10;;;;;;;;;;4900972;29;20091;-89
2022/08/16 01:33:53;;;;;;;0.10;0.10;;;;;;;;;;4900793;29;20048;-89
2022/08/16 01:36:19;;;;;;;0.10;0.10;;;;;;;;;;4901102;29;20043;-88
2022/08/16 01:38:45;;;;;;;0.10;0.10;;;;;;;;;;4916364;29;20483;-87
2022/08/16 01:41:16;;;;;;;0.10;0.10;;;;;;;;;;4901131;29;20044;-88
2022/08/16 01:43:42;;;;;;;0.20;0.20;;;;;;;;;;4916716;29;20131;-89
2022/08/16 01:46:16;;;;;;;0.10;0.10;;;;;;;;;;4916401;29;20071;-89
2022/08/16 01:48:42;;;;;;;0.10;0.10;;;;;;;;;;4916390;29;20048;-89
2022/08/16 01:51:08;;;;;;;0.20;0.20;;;;;;;;;;4916151;29;20051;-89
2022/08/16 01:53:34;;;;;;;0.20;0.20;;;;;;;;;;4901008;29;20040;-88
2022/08/16 01:56:00;;;;;;;0.10;0.10;;;;;;;;;;4916514;29;20098;-88
2022/08/16 01:58:26;;;;;;;0.20;0.20;;;;;;;;;;4900372;29;20051;-89
2022/08/16 02:00:52;;;;;;;0.10;0.10;;;;;;;;;;4900379;29;20048;-89
2022/08/16 02:03:18;;;;;;;0.10;0.10;;;;;;;;;;4916027;29;20044;-88
2022/08/16 02:05:44;;;;;;;0.10;0.10;;;;;;;;;;4900717;29;20088;-89
2022/08/16 02:08:10;;;;;;;0.10;0.10;;;;;;;;;;4915925;29;20089;-89
2022/08/16 02:10:36;;;;;;;0.10;0.10;;;;;;;;;;4900274;29;20343;-89
2022/08/16 02:13:03;;;;;;;0.10;0.10;;;;;;;;;;4900112;29;20134;-89
2022/08/16 02:15:30;;;;;;;0.20;0.20;;;;;;;;;;4900101;29;20100;-89
2022/08/16 02:17:56;;;;;;;0.10;0.10;;;;;;;;;;4900237;29;20369;-89
2022/08/16 02:20:22;;;;;;;0.20;0.20;;;;;;;;;;4899855;29;20105;-88
2022/08/16 02:22:48;;;;;;;0.10;0.10;;;;;;;;;;4915891;29;20492;-88
2022/08/16 02:25:15;;;;;;;0.20;0.20;;;;;;;;;;4900193;29;20044;-88
2022/08/16 02:27:45;;;;;;;0.47;0.10;;;;;;;;;;4915740;29;20040;-88
2022/08/16 02:30:14;;;;;;;0.10;0.10;;;;;;;;;;4915414;29;20050;-88
2022/08/16 02:32:41;;;;;;;0.55;0.55;;;;;;;;;;4899861;29;20388;-89
2022/08/16 02:35:07;;;;;;;0.10;0.10;;;;;;;;;;4899978;29;20068;-89
2022/08/16 02:37:33;;;;;;;0.10;0.10;;;;;;;;;;4884524;29;20388;-89
2022/08/16 02:40:00;;;;;;;0.20;0.20;;;;;;;;;;4899738;29;20047;-88
2022/08/16 02:42:26;;;;;;;0.10;0.10;;;;;;;;;;4899959;29;20400;-89
2022/08/16 02:44:52;;;;;;;0.10;0.10;;;;;;;;;;4900139;29;20040;-89
2022/08/16 02:47:18;;;;;;;0.10;0.10;;;;;;;;;;4915501;29;20373;-90
2022/08/16 02:49:44;;;;;;;0.20;0.20;;;;;;;;;;4900217;29;20132;-89
2022/08/16 02:52:10;;;;;;;0.10;0.10;;;;;;;;;;4899891;29;20044;-88
2022/08/16 02:54:37;;;;;;;0.10;0.10;;;;;;;;;;4899429;29;20050;-90
2022/08/16 02:57:04;;;;;;;0.10;0.10;;;;;;;;;;4899319;29;20100;-89
2022/08/16 02:59:30;;;;;;;0.10;0.10;;;;;;;;;;4899397;29;20078;-89
2022/08/16 03:01:56;;;;;;;0.10;0.10;;;;;;;;;;4899422;29;20048;-88
2022/08/16 03:04:22;;;;;;;0.10;0.10;;;;;;;;;;4898923;29;20048;-89
2022/08/16 03:06:48;;;;;;;0.10;0.10;;;;;;;;;;4915572;29;20071;-88
2022/08/16 03:09:14;;;;;;;0.20;0.20;;;;;;;;;;4915137;29;20044;-89
2022/08/16 03:11:40;;;;;;;0.10;0.10;;;;;;;;;;4899619;29;20040;-90
2022/08/16 03:14:07;;;;;;;0.10;0.10;;;;;;;;;;4899123;29;20044;-87
2022/08/16 03:16:33;;;;;;;0.10;0.10;;;;;;;;;;4898958;29;20086;-88
2022/08/16 03:18:59;;;;;;;0.10;0.10;;;;;;;;;;4914965;29;20100;-89
2022/08/16 03:21:25;;;;;;;0.10;0.10;;;;;;;;;;4899045;29;20044;-88
2022/08/16 03:23:51;;;;;;;0.10;0.10;;;;;;;;;;4915364;29;20066;-88
2022/08/16 03:26:18;;;;;;;0.10;0.10;;;;;;;;;;4899613;29;20483;-88
2022/08/16 03:28:44;;;;;;;0.10;0.10;;;;;;;;;;4899021;29;20040;-88
2022/08/16 03:31:11;;;;;;;0.10;0.10;;;;;;;;;;4898978;29;20058;-90
2022/08/16 03:33:37;;;;;;;0.10;0.10;;;;;;;;;;4914934;29;20214;-90
2022/08/16 03:36:03;;;;;;;0.10;0.10;;;;;;;;;;4899399;29;20044;-90
2022/08/16 03:38:30;;;;;;;0.13;0.13;;;;;;;;;;4898843;29;20501;-90
2022/08/16 03:40:56;;;;;;;0.10;0.10;;;;;;;;;;4898640;29;20047;-91
2022/08/16 03:43:26;;;;;;;0.20;0.20;;;;;;;;;;4898716;29;20105;-91
2022/08/16 03:45:52;;;;;;;0.10;0.10;;;;;;;;;;4898875;29;20040;-91
2022/08/16 03:48:18;;;;;;;0.10;0.10;;;;;;;;;;4898799;29;20044;-91
2022/08/16 03:50:45;;;;;;;0.10;0.10;;;;;;;;;;4899185;29;20086;-91
2022/08/16 03:53:11;;;;;;;0.10;0.10;;;;;;;;;;4883047;29;20051;-91
2022/08/16 03:55:37;;;;;;;0.10;0.10;;;;;;;;;;4899331;29;20040;-88
2022/08/16 03:58:03;;;;;;;0.10;0.10;;;;;;;;;;4914409;29;20044;-90
2022/08/16 04:00:30;;;;;;;0.10;0.10;;;;;;;;;;4898528;29;20692;-90
2022/08/16 04:02:56;;;;;;;0.10;0.10;;;;;;;;;;4898997;29;20515;-90
2022/08/16 04:05:22;;;;;;;0.20;0.20;;;;;;;;;;4914814;29;20048;-89
2022/08/16 04:07:48;;;;;;;0.10;0.10;;;;;;;;;;4898361;29;20052;-90
2022/08/16 04:10:14;;;;;;;0.32;0.32;;;;;;;;;;4898722;29;20047;-89
2022/08/16 04:12:40;;;;;;;0.45;0.30;;;;;;;;;;4914740;29;20052;-89
2022/08/16 04:15:07;;;;;;;0.10;0.10;;;;;;;;;;4914310;29;20050;-88
2022/08/16 04:17:33;;;;;;;0.10;0.10;;;;;;;;;;4916481;29;20124;-88
2022/08/16 04:19:59;;;;;;;0.10;0.10;;;;;;;;;;4902975;29;20436;-88
2022/08/16 04:22:25;;;;;;;0.30;0.30;;;;;;;;;;4902360;29;20127;-88
2022/08/16 04:24:51;;;;;;;0.10;0.10;;;;;;;;;;4902359;29;20090;-88
2022/08/16 04:27:17;;;;;;;0.10;0.10;;;;;;;;;;4918023;29;20072;-88
2022/08/16 04:29:43;;;;;;;0.20;0.20;;;;;;;;;;4917717;29;20080;-89
2022/08/16 04:32:09;;;;;;;0.10;0.10;;;;;;;;;;4918085;29;20190;-88
2022/08/16 04:34:36;;;;;;;0.10;0.10;;;;;;;;;;4902438;29;20050;-89
2022/08/16 04:37:02;;;;;;;0.45;0.40;;;;;;;;;;4902154;29;20052;-89
2022/08/16 04:39:28;;;;;;;0.20;0.20;;;;;;;;;;4901916;29;20483;-89
2022/08/16 04:41:55;;;;;;;0.10;0.10;;;;;;;;;;4917575;29;20044;-89
2022/08/16 04:44:23;;;;;;;0.10;0.10;;;;;;;;;;4917620;29;20047;-89
2022/08/16 04:46:49;;;;;;;0.10;0.10;;;;;;;;;;4886566;29;20040;-88
2022/08/16 04:49:16;;;;;;;0.28;0.28;;;;;;;;;;4901860;29;20040;-89
2022/08/16 04:51:42;;;;;;;0.10;0.10;;;;;;;;;;4901592;29;20047;-88
2022/08/16 04:54:08;;;;;;;0.10;0.10;;;;;;;;;;4901871;29;20046;-89
2022/08/16 04:56:34;;;;;;;0.10;0.10;;;;;;;;;;4901745;29;20113;-88
2022/08/16 04:59:00;;;;;;;0.10;0.10;;;;;;;;;;4901407;29;20079;-88
2022/08/16 05:01:26;;;;;;;0.10;0.10;;;;;;;;;;4882948;29;20091;-88
2022/08/16 05:03:52;;;;;;;0.20;0.20;;;;;;;;;;4882977;29;20088;-89
2022/08/16 05:06:18;;;;;;;0.10;0.10;;;;;;;;;;4898530;29;20041;-88
2022/08/16 05:08:45;;;;;;;0.10;0.10;;;;;;;;;;4898252;29;20048;-89
2022/08/16 05:11:11;;;;;;;0.10;0.10;;;;;;;;;;4898102;29;20076;-88
2022/08/16 05:13:38;;;;;;;0.20;0.20;;;;;;;;;;4898277;29;20056;-88
2022/08/16 05:16:04;;;;;;;0.10;0.10;;;;;;;;;;4882897;29;20048;-88
2022/08/16 05:18:30;;;;;;;0.10;0.10;;;;;;;;;;4882787;29;20109;-87
2022/08/16 05:20:56;;;;;;;0.10;0.10;;;;;;;;;;4898282;29;20049;-88
2022/08/16 05:23:24;;;;;;;0.20;0.20;;;;;;;;;;4882568;29;20051;-90
2022/08/16 05:25:53;;;;;;;0.10;0.10;;;;;;;;;;4882524;29;20132;-88
2022/08/16 05:28:19;;;;;;;0.10;0.10;;;;;;;;;;4897566;29;20052;-88
2022/08/16 05:30:45;;;;;;;0.10;0.10;;;;;;;;;;4882362;29;20529;-89
2022/08/16 05:33:11;;;;;;;0.10;0.10;;;;;;;;;;4898248;29;20400;-88
2022/08/16 05:35:37;;;;;;;0.13;0.13;;;;;;;;;;4882177;29;20045;-89
2022/08/16 05:38:03;;;;;;;0.10;0.10;;;;;;;;;;4897709;29;20491;-89
2022/08/16 05:40:29;;;;;;;0.15;0.15;;;;;;;;;;4882330;29;20114;-89
2022/08/16 05:42:55;;;;;;;0.10;0.10;;;;;;;;;;4882404;29;20037;-89
2022/08/16 05:45:21;;;;;;;0.10;0.10;;;;;;;;;;4897833;29;20049;-89
2022/08/16 05:47:47;;;;;;;0.10;0.10;;;;;;;;;;4882049;29;20044;-89
2022/08/16 05:50:13;;;;;;;0.10;0.10;;;;;;;;;;4882101;29;20047;-89
2022/08/16 05:52:39;;;;;;;0.15;0.15;;;;;;;;;;4881799;29;20044;-89
2022/08/16 05:55:06;;;;;;;0.10;0.10;;;;;;;;;;4897371;29;20047;-90
2022/08/16 05:57:32;;;;;;;0.25;0.25;;;;;;;;;;4897269;29;20488;-90
2022/08/16 05:59:58;;;;;;;0.20;0.20;;;;;;;;;;4889013;29;20105;-89
2022/08/16 06:02:26;;;;;;;0.10;0.10;;;;;;;;;;4900431;29;20063;-89
2022/08/16 06:04:52;;;;;;;0.20;0.20;;;;;;;;;;4900089;29;20480;-90
2022/08/16 06:07:18;;;;;;;0.15;0.15;;;;;;;;;;4900224;29;20036;-89
2022/08/16 06:09:44;;;;;;;0.20;0.20;;;;;;;;;;4884985;29;20044;-91
2022/08/16 06:12:14;;;;;;;0.20;0.20;;;;;;;;;;4900320;29;20047;-94
2022/08/16 06:14:40;;;;;;;0.20;0.20;;;;;;;;;;4900909;29;20043;-93
2022/08/16 06:17:06;;;;;;;0.20;0.20;;;;;;;;;;4900833;29;20476;-94
2022/08/16 06:19:33;;;;;;;0.32;0.32;;;;;;;;;;4900442;29;20090;-94
2022/08/16 06:21:59;;;;;;;0.20;0.20;;;;;;;;;;4900118;29;20044;-93
2022/08/16 06:24:27;;;;;;;0.30;0.30;;;;;;;;;;4899976;29;20040;-94
2022/08/16 06:26:53;;;;;;;0.13;0.13;;;;;;;;;;4885072;29;20055;-94
2022/08/16 06:29:20;;;;;;;0.10;0.10;;;;;;;;;;4899800;29;20047;-94
2022/08/16 06:31:46;;;;;;;0.20;0.20;;;;;;;;;;4900219;29;20055;-93
2022/08/16 06:34:13;;;;;;;0.10;0.10;;;;;;;;;;4899811;29;20456;-93
2022/08/16 06:36:41;;;;;;;0.20;0.20;;;;;;;;;;4900047;29;20043;-93
2022/08/16 06:39:07;;;;;;;0.10;0.10;;;;;;;;;;4898726;29;20047;-92
2022/08/16 06:41:33;;;;;;;0.20;0.20;;;;;;;;;;4899922;29;20086;-93
2022/08/16 06:44:00;;;;;;;0.40;0.40;;;;;;;;;;4899916;29;20199;-94
2022/08/16 06:46:33;;;;;;;0.63;0.30;;;;;;;;;;4884277;29;20090;-93
2022/08/16 06:49:08;;;;;;;0.20;0.20;;;;;;;;;;4899715;29;20050;-93
2022/08/16 06:51:59;;;;;;;0.10;0.10;;;;;;;;;;4900322;29;20047;-96
2022/08/16 06:54:28;;;;;;;0.30;0.30;;;;;;;;;;4882866;29;20044;-92
2022/08/16 06:56:54;;;;;;;0.10;0.10;;;;;;;;;;4899593;29;20201;-92
2022/08/16 06:59:20;;;;;;;0.20;0.20;;;;;;;;;;4883489;29;20055;-92
2022/08/16 07:01:46;;;;;;;0.20;0.20;;;;;;;;;;4899215;29;20119;-91
2022/08/16 07:04:13;;;;;;;0.20;0.20;;;;;;;;;;4899676;29;20460;-91
2022/08/16 07:06:40;;;;;;;0.10;0.10;;;;;;;;;;4899600;29;20105;-91
2022/08/16 07:09:06;;;;;;;0.20;0.20;;;;;;;;;;4915155;29;20365;-91
2022/08/16 07:11:32;;;;;;;0.10;0.10;;;;;;;;;;4899402;29;20099;-91
2022/08/16 07:13:58;;;;;;;0.20;0.20;;;;;;;;;;4914967;29;20051;-91
2022/08/16 07:16:24;;;;;;;0.20;0.20;;;;;;;;;;4883627;29;20089;-92
2022/08/16 07:18:52;;;;;;;0.20;0.20;;;;;;;;;;4898882;29;20096;-91
2022/08/16 07:21:18;;;;;;;0.10;0.10;;;;;;;;;;4898908;29;20047;-92
2022/08/16 07:23:46;;;;;;;0.20;0.20;;;;;;;;;;4899263;29;20044;-92
2022/08/16 07:26:18;;;;;;;0.20;0.20;;;;;;;;;;4898737;29;20087;-91
2022/08/16 07:28:44;;;;;;;0.20;0.20;;;;;;;;;;4898735;29;20143;-91
2022/08/16 07:31:10;;;;;;;0.20;0.20;;;;;;;;;;4899123;29;20150;-91
2022/08/16 07:33:37;;;;;;;0.20;0.20;;;;;;;;;;4899100;29;20506;-90
2022/08/16 07:36:03;;;;;;;0.20;0.20;;;;;;;;;;4899435;29;20051;-92
2022/08/16 07:38:29;;;;;;;0.10;0.10;;;;;;;;;;4898616;29;20040;-94
2022/08/16 07:40:56;;;;;;;0.20;0.20;;;;;;;;;;4898818;29;20044;-89
2022/08/16 07:43:22;;;;;;;0.10;0.10;;;;;;;;;;4898384;29;20052;-90
2022/08/16 07:45:48;;;;;;;0.20;0.20;;;;;;;;;;4898419;29;20040;-92
2022/08/16 07:48:14;;;;;;;0.20;0.20;;;;;;;;;;4914070;29;20051;-91
2022/08/16 07:50:41;;;;;;;0.22;0.22;;;;;;;;;;4915450;29;20032;-92
2022/08/16 07:53:07;;;;;;;0.20;0.20;;;;;;;;;;4902268;29;20044;-92
2022/08/16 07:55:33;;;;;;;0.20;0.20;;;;;;;;;;4902672;29;20415;-93
2022/08/16 07:57:59;;;;;;;0.20;0.20;;;;;;;;;;4918332;29;20407;-93
2022/08/16 08:00:27;;;;;;;0.20;0.20;;;;;;;;;;4902060;29;20060;-93
2022/08/16 08:02:54;;;;;;;0.20;0.20;;;;;;;;;;4902058;29;20411;-93
2022/08/16 08:05:21;;;;;;;0.20;0.20;;;;;;;;;;4901680;29;20040;-92
2022/08/16 08:07:47;;;;;;;0.30;0.30;;;;;;;;;;4901963;29;20050;-91
2022/08/16 08:10:13;;;;;;;0.20;0.20;;;;;;;;;;4902056;29;20421;-91
2022/08/16 08:12:40;;;;;;;0.20;0.20;;;;;;;;;;4902013;29;20044;-92
2022/08/16 08:15:07;;;;;;;0.20;0.20;;;;;;;;;;4886981;29;20372;-92
2022/08/16 08:17:33;;;;;;;0.25;0.25;;;;;;;;;;4902056;29;20079;-91
2022/08/16 08:19:59;;;;;;;0.20;0.20;;;;;;;;;;4901946;29;20552;-92
2022/08/16 08:22:25;;;;;;;0.20;0.20;;;;;;;;;;4901828;29;20480;-91
2022/08/16 08:24:51;;;;;;;0.20;0.20;;;;;;;;;;4901869;29;20040;-92
2022/08/16 08:27:17;;;;;;;0.20;0.20;;;;;;;;;;4902457;29;20040;-93
2022/08/16 08:29:43;;;;;;;0.20;0.20;;;;;;;;;;4901590;29;20407;-91
2022/08/16 08:32:09;;;;;;;0.20;0.20;;;;;;;;;;4917363;29;20048;-92
2022/08/16 08:34:35;;;;;;;0.20;0.20;;;;;;;;;;4917697;29;20127;-92
2022/08/16 08:37:01;;;;;;;0.30;0.30;;;;;;;;;;4902356;29;20079;-91
2022/08/16 08:39:27;;;;;;;0.20;0.20;;;;;;;;;;4901741;29;20087;-91
2022/08/16 08:41:53;;;;;;;0.20;0.20;;;;;;;;;;4901425;29;20044;-91
2022/08/16 08:44:20;;;;;;;0.20;0.20;;;;;;;;;;4901522;29;20087;-91
2022/08/16 08:46:46;;;;;;;0.20;0.20;;;;;;;;;;4917096;29;20043;-91
2022/08/16 08:49:11;;;;;;;0.32;0.32;;;;;;;;;;4901503;29;20040;-91
2022/08/16 08:51:38;;;;;;;0.20;0.20;;;;;;;;;;4917741;29;20212;-92
2022/08/16 08:54:05;;;;;;;0.20;0.20;;;;;;;;;;4901371;29;20039;-92
2022/08/16 08:56:32;;;;;;;0.20;0.20;;;;;;;;;;4901416;29;20100;-92
2022/08/16 08:58:58;;;;;;;0.20;0.20;;;;;;;;;;4900899;29;20047;-91
2022/08/16 09:01:29;;;;;;;0.20;0.20;;;;;;;;;;4916625;29;20052;-92
2022/08/16 09:03:54;;;;;;;;;;;;;;;;;;4916600;29;20052;-91
2022/08/16 09:06:20;;;;;;;0.28;0.28;;;;;;;;;;4901442;29;19919;-92
2022/08/16 09:08:46;;;;;;;0.20;0.20;;;;;;;;;;4901104;29;20066;-92
2022/08/16 09:11:12;;;;;;;0.20;0.20;;;;;;;;;;4901229;29;20051;-91
2022/08/16 09:13:39;;;;;;;0.20;0.20;;;;;;;;;;4916976;29;20048;-90
2022/08/16 09:16:05;;;;;;;0.20;0.20;;;;;;;;;;4916460;29;20399;-90
2022/08/16 09:18:31;;;;;;;0.30;0.30;;;;;;;;;;4901013;29;20058;-91
2022/08/16 09:20:58;;;;;;;0.20;0.20;;;;;;;;;;4900834;29;20044;-89
2022/08/16 09:23:24;;;;;;;0.20;0.20;;;;;;;;;;4900783;29;20044;-89
2022/08/16 09:25:50;;;;;;;0.20;0.20;;;;;;;;;;4898140;29;20411;-92
2022/08/16 09:28:16;;;;;;;0.20;0.20;;;;;;;;;;4889259;29;20116;-91
2022/08/16 09:30:42;;;;;;;0.20;0.20;;;;;;;;;;4863153;29;20084;-90
2022/08/16 09:33:08;;;;;;;0.20;0.20;;;;;;;;;;4870917;29;20083;-93
2022/08/16 09:35:35;;;;;;;0.40;0.40;;;;;;;;;;4891225;29;20444;-92
2022/08/16 09:38:02;;;;;;;0.20;0.20;;;;;;;;;;4897155;29;20630;-92
2022/08/16 09:40:28;;;;;;;0.20;0.20;;;;;;;;;;4884692;29;20101;-91
2022/08/16 09:42:56;;;;;;;0.20;0.20;;;;;;;;;;4900373;29;20036;-91
2022/08/16 09:45:22;;;;;;;0.20;0.20;;;;;;;;;;4900064;29;20487;-92
2022/08/16 09:47:53;;;;;;;0.20;0.20;;;;;;;;;;4900333;29;20044;-92
2022/08/16 09:50:19;;;;;;;0.30;0.30;;;;;;;;;;4900303;29;20425;-91
2022/08/16 09:52:46;;;;;;;0.20;0.20;;;;;;;;;;4900300;29;20561;-92
2022/08/16 09:55:12;;;;;;;0.20;0.20;;;;;;;;;;4900255;29;20400;-91
2022/08/16 09:57:40;;;;;;;0.30;0.30;;;;;;;;;;4899971;29;20052;-91
2022/08/16 10:00:07;;;;;;;0.30;0.30;;;;;;;;;;4899831;29;20067;-90
2022/08/16 10:02:33;;;;;;;0.30;0.30;;;;;;;;;;4900132;29;20044;-90
2022/08/16 10:05:00;;;;;;;0.20;0.20;;;;;;;;;;4900253;29;20043;-91
2022/08/16 10:07:28;;;;;;;0.28;0.28;;;;;;;;;;4900338;29;20444;-90
2022/08/16 10:09:54;;;;;;;0.20;0.20;;;;;;;;;;4899803;29;20127;-92
2022/08/16 10:15:07;;;;;;;0.30;0.30;;;;;;;;;;4912319;29;20048;-92
2022/08/16 10:17:34;;;;;;;0.30;0.30;;;;;;;;;;4899982;29;20487;-91
2022/08/16 10:20:00;;;;;;;0.20;0.20;;;;;;;;;;4915270;29;20066;-92
2022/08/16 10:22:26;;;;;;;0.30;0.30;;;;;;;;;;4884289;29;20044;-92
2022/08/16 10:24:52;;;;;;;0.30;0.30;;;;;;;;;;4899997;29;20537;-92
2022/08/16 10:27:19;;;;;;;0.30;0.30;;;;;;;;;;4903833;29;20418;-91
2022/08/16 10:29:45;;;;;;;0.40;0.40;;;;;;;;;;4915009;29;20044;-93
2022/08/16 10:32:11;;;;;;;0.20;0.20;;;;;;;;;;4899750;29;20035;-92
2022/08/16 10:34:38;;;;;;;0.30;0.30;;;;;;;;;;4902631;29;20040;-92
2022/08/16 10:37:04;;;;;;;0.20;0.20;;;;;;;;;;4889918;29;20096;-92
2022/08/16 10:39:30;;;;;;;0.20;0.20;;;;;;;;;;4917442;29;20496;-92
2022/08/16 10:41:56;;;;;;;0.22;0.22;;;;;;;;;;4899638;29;20463;-92
2022/08/16 10:44:22;;;;;;;0.20;0.20;;;;;;;;;;4899119;29;20044;-93
2022/08/16 10:46:48;;;;;;;0.40;0.40;;;;;;;;;;4899153;29;20047;-93
2022/08/16 10:49:14;;;;;;;0.25;0.25;;;;;;;;;;4899259;29;20483;-91
2022/08/16 10:51:40;;;;;;;0.20;0.20;;;;;;;;;;4899504;29;20096;-91
2022/08/16 10:54:07;;;;;;;0.20;0.20;;;;;;;;;;4899652;29;20092;-91
2022/08/16 10:56:33;;;;;;;0.30;0.30;;;;;;;;;;4915148;29;20123;-90
2022/08/16 10:58:59;;;;;;;0.20;0.20;;;;;;;;;;4898893;29;20052;-91
2022/08/16 11:01:26;;;;;;;0.30;0.30;;;;;;;;;;4887966;29;20113;-89
2022/08/16 11:03:52;;;;;;;0.30;0.30;;;;;;;;;;4880199;29;20051;-90
2022/08/16 11:06:18;;;;;;;0.20;0.20;;;;;;;;;;4880649;29;20045;-89
2022/08/16 11:08:44;;;;;;;0.20;0.20;;;;;;;;;;4880397;29;20037;-90
2022/08/16 11:11:12;;;;;;;0.30;0.30;;;;;;;;;;4880364;29;20266;-90
2022/08/16 11:13:38;;;;;;;0.20;0.20;;;;;;;;;;4880242;29;20048;-90
2022/08/16 11:16:04;;;;;;;0.20;0.20;;;;;;;;;;4880766;29;20261;-89
2022/08/16 11:18:30;;;;;;;0.43;0.43;;;;;;;;;;4880130;29;20053;-90
2022/08/16 11:20:57;;;;;;;0.20;0.20;;;;;;;;;;4880477;29;20048;-89
2022/08/16 11:23:23;;;;;;;0.30;0.30;;;;;;;;;;4880383;29;20055;-90
2022/08/16 11:25:49;;;;;;;0.30;0.30;;;;;;;;;;4880288;29;20061;-90
2022/08/16 11:28:15;;;;;;;0.20;0.20;;;;;;;;;;4880397;29;20040;-90
2022/08/16 11:30:42;;;;;;;0.20;0.20;;;;;;;;;;4880676;29;20104;-90
2022/08/16 11:33:08;;;;;;;0.20;0.20;;;;;;;;;;4880404;29;20469;-88
2022/08/16 11:35:34;;;;;;;0.30;0.30;;;;;;;;;;4880312;29;20080;-90
2022/08/16 11:38:05;;;;;;;0.45;0.45;;;;;;;;;;4879964;29;20075;-90
2022/08/16 11:40:31;;;;;;;;;;;;;;;;;;4880246;29;20066;-90
2022/08/16 11:42:57;;;;;;;0.20;0.20;;;;;;;;;;4880149;29;20370;-90
2022/08/16 11:45:23;;;;;;;0.20;0.20;;;;;;;;;;4879942;29;20051;-90
2022/08/16 11:47:49;;;;;;;0.20;0.20;;;;;;;;;;4880158;29;20036;-89
2022/08/16 11:50:15;;;;;;;0.20;0.20;;;;;;;;;;4880233;29;20401;-89
2022/08/16 11:52:42;;;;;;;0.20;0.20;;;;;;;;;;4879855;29;20041;-91
2022/08/16 11:55:08;;;;;;;0.30;0.30;;;;;;;;;;4879903;29;20045;-90
2022/08/16 11:57:34;;;;;;;0.20;0.20;;;;;;;;;;4879995;29;20052;-90
2022/08/16 12:00:00;;;;;;;0.20;0.20;;;;;;;;;;4876847;29;20409;-90
2022/08/16 12:02:26;;;;;;;0.20;0.20;;;;;;;;;;4876954;29;20060;-90
2022/08/16 12:25:39;;;;;;;0.20;0.20;;;;;;;;;;5166402;23;20064;-94
2022/08/16 12:28:05;;;;;;;0.20;0.20;;;;;;;;;;4849275;29;20056;-93
2022/08/16 12:30:42;;;;;;;0.30;0.30;;;;;;;;;;4849487;29;20049;-96
2022/08/16 12:33:15;;;;;;;0.20;0.20;;;;;;;;;;4854368;29;20084;-96
2022/08/16 12:46:05;;;;;;;0.20;0.20;;;;;;;;;;5284447;23;20443;-96
2022/08/16 12:51:20;;;;;;;0.30;0.30;;;;;;;;;;4915693;29;20076;-95
2022/08/16 12:54:08;;;;;;;0.20;0.20;;;;;;;;;;4901929;29;20047;-95
2022/08/16 12:56:40;;;;;;;0.20;0.20;;;;;;;;;;4904823;29;20083;-95
2022/08/16 12:59:10;;;;;;;0.20;0.20;;;;;;;;;;4891617;29;20497;-93
2022/08/16 13:01:37;;;;;;;0.30;0.30;;;;;;;;;;4889626;29;20078;-93
2022/08/16 13:04:05;;;;;;;0.20;0.20;;;;;;;;;;4920664;29;20427;-92
2022/08/16 13:06:32;;;;;;;0.20;0.20;;;;;;;;;;4889662;29;20051;-93
2022/08/16 13:09:01;;;;;;;0.20;0.20;;;;;;;;;;4889470;29;20391;-92
2022/08/16 13:11:34;;;;;;;0.20;0.20;;;;;;;;;;4905407;29;20103;-92
2022/08/16 13:14:02;;;;;;;0.20;0.20;;;;;;;;;;4904510;29;20050;-93
2022/08/16 13:16:28;;;;;;;0.22;0.22;;;;;;;;;;4889779;29;20155;-93
2022/08/16 13:18:54;;;;;;;0.20;0.20;;;;;;;;;;4896578;29;20076;-96
2022/08/16 13:21:31;;;;;;;0.20;0.20;;;;;;;;;;4902371;29;20515;-96
2022/08/16 13:23:57;;;;;;;0.20;0.20;;;;;;;;;;4884835;29;20135;-95
2022/08/16 13:26:24;;;;;;;0.20;0.20;;;;;;;;;;4869618;29;20048;-95
2022/08/16 13:28:50;;;;;;;0.20;0.20;;;;;;;;;;4869708;29;20039;-94
2022/08/16 13:31:16;;;;;;;0.32;0.32;;;;;;;;;;4869810;29;20066;-94
2022/08/16 13:33:44;;;;;;;0.30;0.30;;;;;;;;;;4869785;29;20047;-94
2022/08/16 13:36:11;;;;;;;0.20;0.20;;;;;;;;;;4884403;29;20087;-94
2022/08/16 13:38:55;;;;;;;0.20;0.20;;;;;;;;;;4869152;29;20106;-94
2022/08/16 13:41:21;;;;;;;0.35;0.35;;;;;;;;;;4885228;29;20461;-95
2022/08/16 13:43:48;;;;;;;0.20;0.20;;;;;;;;;;4884963;29;20048;-95
2022/08/16 13:46:16;;;;;;;0.20;0.20;;;;;;;;;;4855944;29;20171;-94
2022/08/16 13:48:56;;;;;;;0.20;0.20;;;;;;;;;;4850730;29;20131;-96
2022/08/16 13:51:27;;;;;;;0.20;0.20;;;;;;;;;;4871591;29;20052;-94
2022/08/16 13:54:04;;;;;;;0.20;0.20;;;;;;;;;;4889259;29;20475;-96
2022/08/16 13:56:33;;;;;;;0.20;0.20;;;;;;;;;;4904971;29;20434;-95
2022/08/16 13:58:59;;;;;;;0.20;0.20;;;;;;;;;;4905273;29;20125;-95
2022/08/16 14:01:31;;;;;;;0.28;0.28;;;;;;;;;;4889612;29;20046;-95
2022/08/16 14:03:57;;;;;;;0.20;0.20;;;;;;;;;;4890268;29;20040;-94
2022/08/16 14:06:23;;;;;;;0.20;0.20;;;;;;;;;;4903708;29;20044;-93
2022/08/16 14:08:54;;;;;;;0.30;0.30;;;;;;;;;;4888629;29;20091;-94
2022/08/16 14:11:22;;;;;;;0.30;0.30;;;;;;;;;;4888376;29;20047;-96
2022/08/16 14:13:50;;;;;;;0.30;0.30;;;;;;;;;;4889375;29;20075;-96
2022/08/16 14:16:20;;;;;;;0.20;0.20;;;;;;;;;;4889213;29;20569;-96
2022/08/16 14:18:50;;;;;;;0.20;0.20;;;;;;;;;;4890125;29;20462;-96
2022/08/16 14:21:16;;;;;;;0.20;0.20;;;;;;;;;;4885742;29;20158;-96
2022/08/16 14:24:20;;;;;;;0.30;0.30;;;;;;;;;;4889065;29;20051;-96
2022/08/16 14:26:55;;;;;;;0.25;0.25;;;;;;;;;;4934232;29;20056;-95
2022/08/16 14:29:22;;;;;;;0.20;0.20;;;;;;;;;;4893848;29;20043;-95
2022/08/16 14:31:48;;;;;;;0.22;0.22;;;;;;;;;;4889625;29;20078;-94
2022/08/16 14:34:15;;;;;;;0.20;0.20;;;;;;;;;;4888672;29;20040;-95
2022/08/16 14:36:45;;;;;;;0.20;0.20;;;;;;;;;;4905533;29;20402;-95
2022/08/16 14:39:13;;;;;;;0.30;0.30;;;;;;;;;;4889303;29;20036;-93
2022/08/16 14:41:39;;;;;;;0.20;0.20;;;;;;;;;;4890720;29;20045;-94
2022/08/16 14:44:07;;;;;;;0.30;0.30;;;;;;;;;;4896976;29;20082;-93
2022/08/16 14:46:33;;;;;;;0.30;0.30;;;;;;;;;;4909812;29;20158;-94
2022/08/16 14:48:59;;;;;;;0.20;0.20;;;;;;;;;;4914186;29;20118;-93
2022/08/16 14:51:26;;;;;;;0.38;0.38;;;;;;;;;;4927233;29;20386;-94
2022/08/16 14:53:54;;;;;;;0.28;0.28;;;;;;;;;;4914495;29;20050;-96
2022/08/16 14:56:28;;;;;;;0.45;0.30;;;;;;;;;;4910247;29;20050;-95
2022/08/16 14:58:54;;;;;;;0.20;0.20;;;;;;;;;;4908694;29;20039;-93
2022/08/16 15:01:21;;;;;;;0.20;0.20;;;;;;;;;;4906035;29;20051;-94
2022/08/16 15:03:47;;;;;;;0.20;0.20;;;;;;;;;;4921641;29;20055;-94
2022/08/16 15:06:13;;;;;;;0.20;0.20;;;;;;;;;;4906204;29;20047;-94
2022/08/16 15:08:39;;;;;;;0.20;0.20;;;;;;;;;;4905915;28;20047;-94
2022/08/16 15:11:08;;;;;;;0.30;0.30;;;;;;;;;;4905955;29;20079;-93
2022/08/16 15:13:36;;;;;;;0.20;0.20;;;;;;;;;;4911334;29;20039;-95
2022/08/16 15:16:03;;;;;;;0.20;0.20;;;;;;;;;;4926519;29;20101;-93
2022/08/16 15:18:30;;;;;;;0.30;0.30;;;;;;;;;;4906252;29;20481;-94